Time,TemperatureF,DewpointF,PressureIn,WindDirection,WindDirectionDegrees,WindSpeedMPH,WindSpeedGustMPH,Humidity,HourlyPrecipIn,Conditions,Clouds,dailyrainin,SoftwareType,DateUTC
2013-05-03 04:32:00,40.0,20.0,-100.00,WNW,300,4.0,4.0,44,-99.99,,,0.00,,2013-05-03 10:32:00,
2013-05-03 04:42:00,40.0,20.0,-100.00,WNW,300,4.0,4.0,44,-99.99,,,0.00,,2013-05-03 10:42:00,
2013-05-03 04:52:00,40.0,20.0,-100.00,WNW,300,4.0,4.0,44,-99.99,,,0.00,,2013-05-03 10:52:00,
2013-05-03 06:11:00,37.0,19.0,-100.00,WNW,295,3.0,4.0,47,-99.99,,,0.00,,2013-05-03 12:11:00,
2013-05-03 06:21:00,37.0,19.0,-100.00,WNW,295,3.0,4.0,47,-99.99,,,0.00,,2013-05-03 12:21:00,
2013-05-03 06:51:00,39.0,20.0,-100.00,WNW,290,3.0,4.0,47,-99.99,,,0.00,,2013-05-03 12:51:00,
2013-05-03 07:11:00,40.0,22.0,-100.00,West,275,4.0,6.0,48,-99.99,,,0.00,,2013-05-03 13:11:00,
2013-05-03 07:22:00,40.0,22.0,-100.00,West,275,4.0,6.0,48,-99.99,,,0.00,,2013-05-03 13:22:00,
2013-05-03 07:32:00,41.0,23.0,-100.00,West,275,4.0,8.0,47,-99.99,,,0.00,,2013-05-03 13:32:00,
2013-05-03 07:42:00,41.0,23.0,-100.00,West,275,4.0,8.0,47,-99.99,,,0.00,,2013-05-03 13:42:00,
2013-05-03 07:52:00,41.0,23.0,-100.00,West,275,4.0,8.0,47,-99.99,,,0.00,,2013-05-03 13:52:00,
2013-05-03 08:11:00,42.0,24.0,-100.00,WNW,285,3.0,4.0,48,-99.99,,,0.00,,2013-05-03 14:11:00,
2013-05-03 08:21:00,42.0,24.0,-100.00,WNW,285,3.0,4.0,48,-99.99,,,0.00,,2013-05-03 14:21:00,
2013-05-03 08:32:00,43.0,25.0,-100.00,West,275,4.0,6.0,47,-99.99,,,0.00,,2013-05-03 14:32:00,
2013-05-03 08:42:00,43.0,25.0,-100.00,West,275,4.0,6.0,47,-99.99,,,0.00,,2013-05-03 14:42:00,
2013-05-03 08:52:00,43.0,25.0,-100.00,West,275,4.0,6.0,47,-99.99,,,0.00,,2013-05-03 14:52:00,
2013-05-03 09:11:00,44.0,25.0,-100.00,West,275,5.0,8.0,47,-99.99,,,0.00,,2013-05-03 15:11:00,
2013-05-03 09:22:00,44.0,25.0,-100.00,West,275,5.0,8.0,47,-99.99,,,0.00,,2013-05-03 15:22:00,
2013-05-03 09:32:00,46.0,27.0,-100.00,West,265,8.0,12.0,46,-99.99,,,0.00,,2013-05-03 15:32:00,
2013-05-03 09:43:00,46.0,27.0,-100.00,West,265,8.0,12.0,46,-99.99,,,0.00,,2013-05-03 15:43:00,
2013-05-03 09:53:00,46.0,27.0,-100.00,West,265,8.0,12.0,46,-99.99,,,0.00,,2013-05-03 15:53:00,
2013-05-03 10:12:00,48.0,28.0,-100.00,West,270,8.0,16.0,47,-99.99,,,0.00,,2013-05-03 16:12:00,
2013-05-03 10:22:00,48.0,28.0,-100.00,West,270,8.0,16.0,47,-99.99,,,0.00,,2013-05-03 16:22:00,
2013-05-03 10:32:00,47.0,28.0,-100.00,West,280,11.0,20.0,48,-99.99,,,0.00,,2013-05-03 16:32:00,
2013-05-03 10:42:00,47.0,28.0,-100.00,West,280,11.0,20.0,48,-99.99,,,0.00,,2013-05-03 16:42:00,
2013-05-03 10:52:00,47.0,28.0,-100.00,West,280,11.0,20.0,48,-99.99,,,0.00,,2013-05-03 16:52:00,
2013-05-03 11:12:00,46.0,31.0,-100.00,West,265,12.0,17.0,55,-99.99,,,0.00,,2013-05-03 17:12:00,
2013-05-03 11:23:00,46.0,31.0,-100.00,West,265,12.0,17.0,55,-99.99,,,0.00,,2013-05-03 17:23:00,
2013-05-03 11:32:00,47.0,35.0,-100.00,WNW,290,9.0,21.0,63,-99.99,,,0.00,,2013-05-03 17:32:00,
2013-05-03 11:42:00,47.0,35.0,-100.00,WNW,290,9.0,21.0,63,-99.99,,,0.00,,2013-05-03 17:42:00,
2013-05-03 11:51:00,47.0,35.0,-100.00,WNW,290,9.0,21.0,63,-99.99,,,0.00,,2013-05-03 17:51:00,
2013-05-03 13:11:00,47.0,40.0,-100.00,West,260,7.0,12.0,78,-99.99,,,0.00,,2013-05-03 19:11:00,
2013-05-03 13:21:00,47.0,40.0,-100.00,West,260,7.0,12.0,78,-99.99,,,0.00,,2013-05-03 19:21:00,
2013-05-03 13:32:00,47.0,40.0,-100.00,West,280,9.0,13.0,76,-99.99,,,0.00,,2013-05-03 19:32:00,
2013-05-03 13:41:00,47.0,40.0,-100.00,West,280,9.0,13.0,76,-99.99,,,0.00,,2013-05-03 19:41:00,
2013-05-03 13:52:00,47.0,40.0,-100.00,West,280,9.0,13.0,76,-99.99,,,0.00,,2013-05-03 19:52:00,
2013-05-03 14:11:00,47.0,41.0,-100.00,West,275,8.0,13.0,79,-99.99,,,0.00,,2013-05-03 20:11:00,
2013-05-03 14:21:00,47.0,41.0,-100.00,West,275,8.0,13.0,79,-99.99,,,0.00,,2013-05-03 20:21:00,
2013-05-03 14:31:00,48.0,42.0,-100.00,WNW,290,8.0,15.0,79,-99.99,,,0.00,,2013-05-03 20:31:00,
2013-05-03 14:41:00,48.0,42.0,-100.00,WNW,290,8.0,15.0,79,-99.99,,,0.00,,2013-05-03 20:41:00,
2013-05-03 14:52:00,48.0,42.0,-100.00,WNW,290,8.0,15.0,79,-99.99,,,0.00,,2013-05-03 20:52:00,
2013-05-03 15:11:00,46.0,43.0,-100.00,West,280,6.0,11.0,89,-99.99,,,0.00,,2013-05-03 21:11:00,
2013-05-03 15:21:00,46.0,43.0,-100.00,West,280,6.0,11.0,89,-99.99,,,0.00,,2013-05-03 21:21:00,
2013-05-03 15:33:00,42.0,41.0,-100.00,North,10,0.0,9.0,94,-99.99,,,0.00,,2013-05-03 21:33:00,
2013-05-03 15:42:00,42.0,41.0,-100.00,North,10,0.0,9.0,94,-99.99,,,0.00,,2013-05-03 21:42:00,
2013-05-03 15:52:00,42.0,41.0,-100.00,North,10,0.0,9.0,94,-99.99,,,0.00,,2013-05-03 21:52:00,
2013-05-03 16:12:00,42.0,42.0,-100.00,WNW,290,1.0,4.0,98,-99.99,,,0.00,,2013-05-03 22:12:00,
2013-05-03 16:22:00,42.0,42.0,-100.00,WNW,290,1.0,4.0,98,-99.99,,,0.00,,2013-05-03 22:22:00,
2013-05-03 18:11:00,43.0,43.0,-100.00,NW,305,8.0,14.0,99,-99.99,,,0.00,,2013-05-04 00:11:00,
2013-05-03 18:22:00,43.0,43.0,-100.00,NW,305,8.0,14.0,99,-99.99,,,0.00,,2013-05-04 00:22:00,